sensor_id;sensor_type;location;lat;lon;timestamp;pressure;altitude;pressure_sealevel;temperature;humidity
71915;BME280;60387;49.994;14.660;2023-12-14T00:02:15;96473.94;;;10.62;60.74
71915;BME280;60387;49.994;14.660;2023-12-14T00:04:49;96473.59;;;10.63;60.82
71915;BME280;60387;49.994;14.660;2023-12-14T00:07:22;96480.25;;;10.66;60.61
71915;BME280;60387;49.994;14.660;2023-12-14T00:09:55;96490.44;;;10.69;60.53
71915;BME280;60387;49.994;14.660;2023-12-14T00:12:28;96483.91;;;10.70;60.67
71915;BME280;60387;49.994;14.660;2023-12-14T00:15:02;96492.50;;;10.72;60.74
71915;BME280;60387;49.994;14.660;2023-12-14T00:17:35;96484.69;;;10.70;60.95
71915;BME280;60387;49.994;14.660;2023-12-14T00:20:09;96489.34;;;10.70;61.01
71915;BME280;60387;49.994;14.660;2023-12-14T00:22:42;96486.94;;;10.68;60.45
71915;BME280;60387;49.994;14.660;2023-12-14T00:25:15;96487.72;;;10.69;61.00
71915;BME280;60387;49.994;14.660;2023-12-14T00:27:49;96504.44;;;10.71;60.45
71915;BME280;60387;49.994;14.660;2023-12-14T00:30:22;96507.94;;;10.71;60.49
71915;BME280;60387;49.994;14.660;2023-12-14T00:32:55;96497.91;;;10.72;60.52
71915;BME280;60387;49.994;14.660;2023-12-14T00:35:28;96505.69;;;10.73;60.89
71915;BME280;60387;49.994;14.660;2023-12-14T00:38:02;96498.38;;;10.74;61.20
71915;BME280;60387;49.994;14.660;2023-12-14T00:40:35;96510.31;;;10.73;60.68
71915;BME280;60387;49.994;14.660;2023-12-14T00:43:08;96517.19;;;10.70;61.03
71915;BME280;60387;49.994;14.660;2023-12-14T00:45:42;96511.00;;;10.70;60.62
71915;BME280;60387;49.994;14.660;2023-12-14T00:48:15;96514.78;;;10.69;61.43
71915;BME280;60387;49.994;14.660;2023-12-14T00:50:48;96517.06;;;10.67;61.35
71915;BME280;60387;49.994;14.660;2023-12-14T00:53:21;96518.97;;;10.66;61.13
71915;BME280;60387;49.994;14.660;2023-12-14T00:55:55;96516.91;;;10.63;61.40
71915;BME280;60387;49.994;14.660;2023-12-14T00:58:28;96528.09;;;10.62;61.00
71915;BME280;60387;49.994;14.660;2023-12-14T01:01:01;96533.53;;;10.62;61.18
71915;BME280;60387;49.994;14.660;2023-12-14T01:03:34;96541.63;;;10.62;61.15
71915;BME280;60387;49.994;14.660;2023-12-14T01:06:08;96548.63;;;10.63;61.14
71915;BME280;60387;49.994;14.660;2023-12-14T01:08:41;96555.63;;;10.64;61.06
71915;BME280;60387;49.994;14.660;2023-12-14T01:11:14;96549.41;;;10.63;60.98
71915;BME280;60387;49.994;14.660;2023-12-14T01:13:48;96556.31;;;10.61;61.04
71915;BME280;60387;49.994;14.660;2023-12-14T01:16:21;96565.34;;;10.65;61.04
71915;BME280;60387;49.994;14.660;2023-12-14T01:18:54;96564.06;;;10.62;60.98
71915;BME280;60387;49.994;14.660;2023-12-14T01:21:27;96555.63;;;10.64;61.32
71915;BME280;60387;49.994;14.660;2023-12-14T01:24:01;96568.84;;;10.65;60.91
71915;BME280;60387;49.994;14.660;2023-12-14T01:26:34;96560.47;;;10.58;61.14
71915;BME280;60387;49.994;14.660;2023-12-14T01:29:07;96572.66;;;10.64;61.22
71915;BME280;60387;49.994;14.660;2023-12-14T01:31:41;96579.69;;;10.65;60.77
71915;BME280;60387;49.994;14.660;2023-12-14T01:34:14;96572.03;;;10.67;61.40
71915;BME280;60387;49.994;14.660;2023-12-14T01:36:47;96577.09;;;10.69;60.89
71915;BME280;60387;49.994;14.660;2023-12-14T01:39:20;96578.69;;;10.70;61.21
71915;BME280;60387;49.994;14.660;2023-12-14T01:41:54;96573.28;;;10.70;61.31
71915;BME280;60387;49.994;14.660;2023-12-14T01:44:27;96579.78;;;10.69;60.85
71915;BME280;60387;49.994;14.660;2023-12-14T01:47:00;96583.00;;;10.71;60.98
71915;BME280;60387;49.994;14.660;2023-12-14T01:49:33;96578.69;;;10.70;60.93
71915;BME280;60387;49.994;14.660;2023-12-14T01:52:07;96591.56;;;10.73;60.83
71915;BME280;60387;49.994;14.660;2023-12-14T01:54:40;96583.44;;;10.73;61.20
71915;BME280;60387;49.994;14.660;2023-12-14T01:57:13;96597.44;;;10.75;60.97
71915;BME280;60387;49.994;14.660;2023-12-14T01:59:47;96593.16;;;10.74;60.77
71915;BME280;60387;49.994;14.660;2023-12-14T02:02:20;96588.88;;;10.73;60.82
71915;BME280;60387;49.994;14.660;2023-12-14T02:04:53;96605.56;;;10.75;61.02
71915;BME280;60387;49.994;14.660;2023-12-14T02:07:26;96601.75;;;10.76;60.77
71915;BME280;60387;49.994;14.660;2023-12-14T02:10:00;96602.88;;;10.75;60.49
71915;BME280;60387;49.994;14.660;2023-12-14T02:12:33;96605.56;;;10.75;61.13
71915;BME280;60387;49.994;14.660;2023-12-14T02:15:06;96611.44;;;10.77;61.08
71915;BME280;60387;49.994;14.660;2023-12-14T02:17:40;96607.16;;;10.76;60.86
71915;BME280;60387;49.994;14.660;2023-12-14T02:20:13;96608.75;;;10.77;60.97
71915;BME280;60387;49.994;14.660;2023-12-14T02:22:53;96606.84;;;10.77;60.76
71915;BME280;60387;49.994;14.660;2023-12-14T02:25:27;96618.47;;;10.78;60.76
71915;BME280;60387;49.994;14.660;2023-12-14T02:28:00;96608.88;;;10.80;61.04
71915;BME280;60387;49.994;14.660;2023-12-14T02:30:33;96615.09;;;10.81;61.06
71915;BME280;60387;49.994;14.660;2023-12-14T02:33:07;96618.13;;;10.79;60.74
71915;BME280;60387;49.994;14.660;2023-12-14T02:35:40;96633.59;;;10.79;60.81
71915;BME280;60387;49.994;14.660;2023-12-14T02:38:13;96626.59;;;10.78;61.07
71915;BME280;60387;49.994;14.660;2023-12-14T02:40:46;96628.03;;;10.75;61.07
71915;BME280;60387;49.994;14.660;2023-12-14T02:43:20;96624.06;;;10.73;60.87
71915;BME280;60387;49.994;14.660;2023-12-14T02:45:53;96632.19;;;10.73;61.25
71915;BME280;60387;49.994;14.660;2023-12-14T02:48:26;96638.06;;;10.75;60.81
71915;BME280;60387;49.994;14.660;2023-12-14T02:50:59;96632.66;;;10.75;60.76
71915;BME280;60387;49.994;14.660;2023-12-14T02:53:33;96638.53;;;10.77;60.83
71915;BME280;60387;49.994;14.660;2023-12-14T02:56:06;96642.84;;;10.78;61.14
71915;BME280;60387;49.994;14.660;2023-12-14T02:58:40;96639.03;;;10.79;60.84
71915;BME280;60387;49.994;14.660;2023-12-14T03:01:13;96641.38;;;10.80;61.15
71915;BME280;60387;49.994;14.660;2023-12-14T03:03:47;96651.09;;;10.81;61.39
71915;BME280;60387;49.994;14.660;2023-12-14T03:06:20;96647.59;;;10.81;61.00
71915;BME280;60387;49.994;14.660;2023-12-14T03:08:53;96652.06;;;10.77;61.24
71915;BME280;60387;49.994;14.660;2023-12-14T03:11:26;96660.84;;;10.82;61.16
71915;BME280;60387;49.994;14.660;2023-12-14T03:14:00;96661.63;;;10.83;60.76
71915;BME280;60387;49.994;14.660;2023-12-14T03:16:33;96657.78;;;10.84;61.04
71915;BME280;60387;49.994;14.660;2023-12-14T03:19:06;96661.63;;;10.83;60.91
71915;BME280;60387;49.994;14.660;2023-12-14T03:21:39;96667.03;;;10.83;61.09
71915;BME280;60387;49.994;14.660;2023-12-14T03:24:13;96669.75;;;10.83;60.88
71915;BME280;60387;49.994;14.660;2023-12-14T03:26:46;96682.50;;;10.82;60.97
71915;BME280;60387;49.994;14.660;2023-12-14T03:29:19;96669.28;;;10.81;61.46
71915;BME280;60387;49.994;14.660;2023-12-14T03:31:53;96662.28;;;10.80;61.52
71915;BME280;60387;49.994;14.660;2023-12-14T03:34:26;96669.44;;;10.76;61.32
71915;BME280;60387;49.994;14.660;2023-12-14T03:36:59;96677.94;;;10.74;61.64
71915;BME280;60387;49.994;14.660;2023-12-14T03:39:32;96680.63;;;10.74;61.16
71915;BME280;60387;49.994;14.660;2023-12-14T03:42:06;96678.38;;;10.76;61.04
71915;BME280;60387;49.994;14.660;2023-12-14T03:44:39;96681.09;;;10.76;61.36
71915;BME280;60387;49.994;14.660;2023-12-14T03:47:12;96674.88;;;10.76;61.24
71915;BME280;60387;49.994;14.660;2023-12-14T03:49:45;96681.88;;;10.77;61.53
71915;BME280;60387;49.994;14.660;2023-12-14T03:52:19;96680.28;;;10.76;61.43
71915;BME280;60387;49.994;14.660;2023-12-14T03:54:52;96679.84;;;10.74;61.13
71915;BME280;60387;49.994;14.660;2023-12-14T03:57:25;96687.50;;;10.72;61.49
71915;BME280;60387;49.994;14.660;2023-12-14T03:59:58;96690.81;;;10.77;61.09
71915;BME280;60387;49.994;14.660;2023-12-14T04:02:32;96702.44;;;10.78;61.53
71915;BME280;60387;49.994;14.660;2023-12-14T04:05:09;96701.31;;;10.79;61.49
71915;BME280;60387;49.994;14.660;2023-12-14T04:07:45;96703.09;;;10.75;61.25
71915;BME280;60387;49.994;14.660;2023-12-14T04:10:18;96701.97;;;10.76;61.24
71915;BME280;60387;49.994;14.660;2023-12-14T04:12:52;96697.34;;;10.76;61.72
71915;BME280;60387;49.994;14.660;2023-12-14T04:15:25;96694.97;;;10.75;61.59
71915;BME280;60387;49.994;14.660;2023-12-14T04:17:58;96702.75;;;10.76;61.76
71915;BME280;60387;49.994;14.660;2023-12-14T04:20:31;96711.22;;;10.75;61.28
71915;BME280;60387;49.994;14.660;2023-12-14T04:23:05;96715.50;;;10.76;61.37
71915;BME280;60387;49.994;14.660;2023-12-14T04:25:38;96720.13;;;10.75;61.21
71915;BME280;60387;49.994;14.660;2023-12-14T04:28:11;96728.59;;;10.74;61.51
71915;BME280;60387;49.994;14.660;2023-12-14T04:30:44;96724.28;;;10.73;61.51
71915;BME280;60387;49.994;14.660;2023-12-14T04:33:18;96727.47;;;10.75;61.26
71915;BME280;60387;49.994;14.660;2023-12-14T04:35:51;96725.06;;;10.73;61.51
71915;BME280;60387;49.994;14.660;2023-12-14T04:38:24;96735.13;;;10.73;61.58
71915;BME280;60387;49.994;14.660;2023-12-14T04:40:57;96744.38;;;10.72;61.16
71915;BME280;60387;49.994;14.660;2023-12-14T04:43:31;96745.16;;;10.72;61.37
71915;BME280;60387;49.994;14.660;2023-12-14T04:46:04;96752.34;;;10.68;61.66
71915;BME280;60387;49.994;14.660;2023-12-14T04:48:37;96748.84;;;10.68;61.46
71915;BME280;60387;49.994;14.660;2023-12-14T04:51:11;96750.16;;;10.62;61.41
71915;BME280;60387;49.994;14.660;2023-12-14T04:53:45;96764.47;;;10.62;61.51
71915;BME280;60387;49.994;14.660;2023-12-14T04:56:18;96767.53;;;10.61;61.46
71915;BME280;60387;49.994;14.660;2023-12-14T04:58:51;96770.41;;;10.56;61.70
71915;BME280;60387;49.994;14.660;2023-12-14T05:01:24;96774.69;;;10.57;61.69
71915;BME280;60387;49.994;14.660;2023-12-14T05:03:58;96771.53;;;10.55;61.74
71915;BME280;60387;49.994;14.660;2023-12-14T05:06:31;96779.28;;;10.56;61.25
71915;BME280;60387;49.994;14.660;2023-12-14T05:09:04;96783.28;;;10.59;61.54
71915;BME280;60387;49.994;14.660;2023-12-14T05:11:40;96786.47;;;10.61;61.56
71915;BME280;60387;49.994;14.660;2023-12-14T05:14:13;96799.22;;;10.60;61.07
71915;BME280;60387;49.994;14.660;2023-12-14T05:16:46;96802.72;;;10.61;61.45
71915;BME280;60387;49.994;14.660;2023-12-14T05:19:20;96815.16;;;10.62;61.12
71915;BME280;60387;49.994;14.660;2023-12-14T05:21:53;96820.56;;;10.62;61.44
71915;BME280;60387;49.994;14.660;2023-12-14T05:24:26;96825.47;;;10.60;61.50
71915;BME280;60387;49.994;14.660;2023-12-14T05:26:59;96826.13;;;10.57;61.18
71915;BME280;60387;49.994;14.660;2023-12-14T05:29:33;96827.72;;;10.58;61.22
71915;BME280;60387;49.994;14.660;2023-12-14T05:32:06;96832.03;;;10.59;61.65
71915;BME280;60387;49.994;14.660;2023-12-14T05:34:39;96828.53;;;10.58;61.23
71915;BME280;60387;49.994;14.660;2023-12-14T05:37:13;96830.13;;;10.59;61.78
71915;BME280;60387;49.994;14.660;2023-12-14T05:39:46;96836.81;;;10.62;61.53
71915;BME280;60387;49.994;14.660;2023-12-14T05:42:19;96836.31;;;10.60;61.74
71915;BME280;60387;49.994;14.660;2023-12-14T05:44:52;96845.56;;;10.59;61.45
71915;BME280;60387;49.994;14.660;2023-12-14T05:47:26;96847.81;;;10.57;61.38
71915;BME280;60387;49.994;14.660;2023-12-14T05:50:00;96852.91;;;10.58;61.47
71915;BME280;60387;49.994;14.660;2023-12-14T05:52:34;96858.78;;;10.60;61.38
71915;BME280;60387;49.994;14.660;2023-12-14T05:55:08;96862.94;;;10.58;61.28
71915;BME280;60387;49.994;14.660;2023-12-14T05:57:42;96867.22;;;10.59;61.26
71915;BME280;60387;49.994;14.660;2023-12-14T06:00:15;96873.13;;;10.61;61.46
71915;BME280;60387;49.994;14.660;2023-12-14T06:02:48;96857.81;;;10.56;61.39
71915;BME280;60387;49.994;14.660;2023-12-14T06:05:22;96880.00;;;10.58;61.44
71915;BME280;60387;49.994;14.660;2023-12-14T06:07:55;96881.88;;;10.58;61.75
71915;BME280;60387;49.994;14.660;2023-12-14T06:10:28;96881.41;;;10.56;61.69
71915;BME280;60387;49.994;14.660;2023-12-14T06:13:01;96892.25;;;10.56;61.49
71915;BME280;60387;49.994;14.660;2023-12-14T06:15:35;96896.53;;;10.57;61.24
71915;BME280;60387;49.994;14.660;2023-12-14T06:18:08;96900.06;;;10.57;61.46
71915;BME280;60387;49.994;14.660;2023-12-14T06:20:41;96908.97;;;10.58;61.47
71915;BME280;60387;49.994;14.660;2023-12-14T06:23:14;96911.66;;;10.58;61.37
71915;BME280;60387;49.994;14.660;2023-12-14T06:25:48;96917.91;;;10.58;61.27
71915;BME280;60387;49.994;14.660;2023-12-14T06:28:21;96915.97;;;10.59;61.47
71915;BME280;60387;49.994;14.660;2023-12-14T06:30:54;96925.38;;;10.61;61.66
71915;BME280;60387;49.994;14.660;2023-12-14T06:33:27;96928.53;;;10.63;61.26
71915;BME280;60387;49.994;14.660;2023-12-14T06:36:03;96928.25;;;10.65;61.39
71915;BME280;60387;49.994;14.660;2023-12-14T06:38:40;96936.84;;;10.67;61.70
71915;BME280;60387;49.994;14.660;2023-12-14T06:41:23;96938.25;;;10.64;61.13
71915;BME280;60387;49.994;14.660;2023-12-14T06:43:57;96940.19;;;10.64;61.27
71915;BME280;60387;49.994;14.660;2023-12-14T06:46:30;96948.63;;;10.62;61.13
71915;BME280;60387;49.994;14.660;2023-12-14T06:49:03;96950.56;;;10.62;61.13
71915;BME280;60387;49.994;14.660;2023-12-14T06:51:36;96957.09;;;10.61;61.30
71915;BME280;60387;49.994;14.660;2023-12-14T06:54:10;96952.75;;;10.60;61.42
71915;BME280;60387;49.994;14.660;2023-12-14T06:56:43;96956.59;;;10.59;61.62
71915;BME280;60387;49.994;14.660;2023-12-14T06:59:16;96968.53;;;10.58;61.64
71915;BME280;60387;49.994;14.660;2023-12-14T07:01:49;96967.13;;;10.60;61.46
71915;BME280;60387;49.994;14.660;2023-12-14T07:04:23;96982.56;;;10.60;61.29
71915;BME280;60387;49.994;14.660;2023-12-14T07:06:56;96978.91;;;10.56;61.40
71915;BME280;60387;49.994;14.660;2023-12-14T07:09:29;96987.97;;;10.60;61.45
71915;BME280;60387;49.994;14.660;2023-12-14T07:12:03;96986.38;;;10.59;61.16
71915;BME280;60387;49.994;14.660;2023-12-14T07:14:36;96980.97;;;10.59;61.20
71915;BME280;60387;49.994;14.660;2023-12-14T07:17:09;96993.38;;;10.60;61.26
71915;BME280;60387;49.994;14.660;2023-12-14T07:19:42;97000.72;;;10.59;61.45
71915;BME280;60387;49.994;14.660;2023-12-14T07:22:16;97008.38;;;10.57;61.31
71915;BME280;60387;49.994;14.660;2023-12-14T07:24:49;97003.75;;;10.58;61.28
71915;BME280;60387;49.994;14.660;2023-12-14T07:27:22;97011.88;;;10.58;61.33
71915;BME280;60387;49.994;14.660;2023-12-14T07:29:56;97010.28;;;10.57;61.61
71915;BME280;60387;49.994;14.660;2023-12-14T07:32:29;97015.38;;;10.58;61.62
71915;BME280;60387;49.994;14.660;2023-12-14T07:35:02;97020.00;;;10.58;61.54
71915;BME280;60387;49.994;14.660;2023-12-14T07:37:36;97015.84;;;10.52;61.50
71915;BME280;60387;49.994;14.660;2023-12-14T07:40:09;97020.16;;;10.53;61.34
71915;BME280;60387;49.994;14.660;2023-12-14T07:42:42;97026.66;;;10.52;61.86
71915;BME280;60387;49.994;14.660;2023-12-14T07:45:16;97025.88;;;10.51;61.23
71915;BME280;60387;49.994;14.660;2023-12-14T07:47:49;97029.72;;;10.50;61.69
71915;BME280;60387;49.994;14.660;2023-12-14T07:50:22;97043.41;;;10.54;61.30
71915;BME280;60387;49.994;14.660;2023-12-14T07:52:56;97048.03;;;10.53;61.40
71915;BME280;60387;49.994;14.660;2023-12-14T07:55:30;97043.41;;;10.54;61.96
71915;BME280;60387;49.994;14.660;2023-12-14T07:58:03;97047.25;;;10.53;61.66
71915;BME280;60387;49.994;14.660;2023-12-14T08:00:37;97047.25;;;10.53;61.72
71915;BME280;60387;49.994;14.660;2023-12-14T08:03:10;97047.72;;;10.55;61.79
71915;BME280;60387;49.994;14.660;2023-12-14T08:05:43;97062.84;;;10.56;61.48
71915;BME280;60387;49.994;14.660;2023-12-14T08:08:16;97059.50;;;10.59;62.02
71915;BME280;60387;49.994;14.660;2023-12-14T08:10:50;97070.50;;;10.62;61.72
71915;BME280;60387;49.994;14.660;2023-12-14T08:13:23;97071.78;;;10.65;61.47
71915;BME280;60387;49.994;14.660;2023-12-14T08:15:56;97066.53;;;10.68;61.44
71915;BME280;60387;49.994;14.660;2023-12-14T08:18:30;97075.94;;;10.71;61.91
71915;BME280;60387;49.994;14.660;2023-12-14T08:21:03;97076.41;;;10.73;61.94
71915;BME280;60387;49.994;14.660;2023-12-14T08:23:36;97066.69;;;10.72;61.67
71915;BME280;60387;49.994;14.660;2023-12-14T08:26:10;97086.75;;;10.79;61.83
71915;BME280;60387;49.994;14.660;2023-12-14T08:28:43;97093.16;;;10.83;61.60
71915;BME280;60387;49.994;14.660;2023-12-14T08:31:16;97097.94;;;10.86;61.61
71915;BME280;60387;49.994;14.660;2023-12-14T08:33:50;97102.72;;;10.89;61.72
71915;BME280;60387;49.994;14.660;2023-12-14T08:36:23;97112.94;;;10.92;61.66
71915;BME280;60387;49.994;14.660;2023-12-14T08:38:56;97109.88;;;10.94;61.62
71915;BME280;60387;49.994;14.660;2023-12-14T08:41:30;97108.16;;;10.98;61.38
71915;BME280;60387;49.994;14.660;2023-12-14T08:44:03;97118.69;;;10.99;61.75
71915;BME280;60387;49.994;14.660;2023-12-14T08:46:44;97128.56;;;11.04;61.29
71915;BME280;60387;49.994;14.660;2023-12-14T08:49:18;97126.94;;;11.03;61.59
71915;BME280;60387;49.994;14.660;2023-12-14T08:51:51;97128.56;;;11.04;61.29
71915;BME280;60387;49.994;14.660;2023-12-14T08:54:27;97141.47;;;11.07;61.45
71915;BME280;60387;49.994;14.660;2023-12-14T08:57:00;97146.41;;;11.05;61.33
71915;BME280;60387;49.994;14.660;2023-12-14T08:59:34;97153.44;;;11.06;61.19
71915;BME280;60387;49.994;14.660;2023-12-14T09:02:07;97156.59;;;11.08;61.31
71915;BME280;60387;49.994;14.660;2023-12-14T09:04:40;97165.22;;;11.10;61.48
71915;BME280;60387;49.994;14.660;2023-12-14T09:07:13;97166.81;;;11.11;61.99
71915;BME280;60387;49.994;14.660;2023-12-14T09:09:47;97168.91;;;11.14;61.79
71915;BME280;60387;49.994;14.660;2023-12-14T09:12:20;97172.09;;;11.16;61.75
71915;BME280;60387;49.994;14.660;2023-12-14T09:14:53;97169.06;;;11.17;61.79
71915;BME280;60387;49.994;14.660;2023-12-14T09:17:27;97173.03;;;11.20;61.32
71915;BME280;60387;49.994;14.660;2023-12-14T09:20:00;97183.72;;;11.25;61.81
71915;BME280;60387;49.994;14.660;2023-12-14T09:22:33;97183.72;;;11.25;61.90
71915;BME280;60387;49.994;14.660;2023-12-14T09:25:07;97190.91;;;11.29;61.29
71915;BME280;60387;49.994;14.660;2023-12-14T09:27:41;97189.47;;;11.32;61.48
71915;BME280;60387;49.994;14.660;2023-12-14T09:30:14;97192.00;;;11.37;61.23
71915;BME280;60387;49.994;14.660;2023-12-14T09:32:47;97186.75;;;11.40;61.64
71915;BME280;60387;49.994;14.660;2023-12-14T09:35:21;97190.75;;;11.43;61.13
71915;BME280;60387;49.994;14.660;2023-12-14T09:37:54;97190.59;;;11.48;61.63
71915;BME280;60387;49.994;14.660;2023-12-14T09:40:27;97197.44;;;11.54;61.19
71915;BME280;60387;49.994;14.660;2023-12-14T09:43:00;97200.34;;;11.57;61.25
71915;BME280;60387;49.994;14.660;2023-12-14T09:45:34;97205.63;;;11.62;61.06
71915;BME280;60387;49.994;14.660;2023-12-14T09:48:09;97211.22;;;11.66;61.46
71915;BME280;60387;49.994;14.660;2023-12-14T09:50:43;97210.88;;;11.67;61.00
71915;BME280;60387;49.994;14.660;2023-12-14T09:53:17;97210.41;;;11.74;61.38
71915;BME280;60387;49.994;14.660;2023-12-14T09:55:50;97215.66;;;11.79;61.45
71915;BME280;60387;49.994;14.660;2023-12-14T09:58:23;97209.75;;;11.85;61.04
71915;BME280;60387;49.994;14.660;2023-12-14T10:00:57;97224.44;;;11.93;61.32
71915;BME280;60387;49.994;14.660;2023-12-14T10:03:30;97226.34;;;12.01;61.34
71915;BME280;60387;49.994;14.660;2023-12-14T10:06:04;97228.72;;;12.02;61.24
71915;BME280;60387;49.994;14.660;2023-12-14T10:08:37;97229.97;;;12.05;61.26
71915;BME280;60387;49.994;14.660;2023-12-14T10:11:15;97227.28;;;12.05;61.03
71915;BME280;60387;49.994;14.660;2023-12-14T10:13:48;97227.28;;;12.05;61.24
71915;BME280;60387;49.994;14.660;2023-12-14T10:16:31;97233.03;;;12.03;61.00
71915;BME280;60387;49.994;14.660;2023-12-14T10:19:05;97237.03;;;12.06;61.03
71915;BME280;60387;49.994;14.660;2023-12-14T10:21:38;97232.69;;;12.05;61.08
71915;BME280;60387;49.994;14.660;2023-12-14T10:24:12;97231.09;;;12.04;60.87
71915;BME280;60387;49.994;14.660;2023-12-14T10:26:45;97238.78;;;12.02;61.01
71915;BME280;60387;49.994;14.660;2023-12-14T10:29:18;97238.47;;;12.03;61.01
71915;BME280;60387;49.994;14.660;2023-12-14T10:31:52;97242.59;;;12.09;60.74
71915;BME280;60387;49.994;14.660;2023-12-14T10:34:25;97245.81;;;12.11;60.78
71915;BME280;60387;49.994;14.660;2023-12-14T10:36:59;97237.97;;;12.10;60.79
71915;BME280;60387;49.994;14.660;2023-12-14T10:39:35;97248.03;;;12.09;61.10
71915;BME280;60387;49.994;14.660;2023-12-14T10:42:10;97255.38;;;12.09;60.82
71915;BME280;60387;49.994;14.660;2023-12-14T10:44:44;97261.94;;;12.08;60.95
71915;BME280;60387;49.994;14.660;2023-12-14T10:47:19;97257.28;;;12.08;61.08
71915;BME280;60387;49.994;14.660;2023-12-14T10:49:54;97261.94;;;12.08;61.03
71915;BME280;60387;49.994;14.660;2023-12-14T10:52:27;97270.56;;;12.10;60.99
71915;BME280;60387;49.994;14.660;2023-12-14T10:55:06;97273.25;;;12.10;61.01
71915;BME280;60387;49.994;14.660;2023-12-14T10:57:40;97276.44;;;12.12;60.74
71915;BME280;60387;49.994;14.660;2023-12-14T11:00:15;97287.31;;;12.12;61.17
71915;BME280;60387;49.994;14.660;2023-12-14T11:02:50;97273.25;;;12.10;61.18
71915;BME280;60387;49.994;14.660;2023-12-14T11:05:27;97290.03;;;12.12;60.91
71915;BME280;60387;49.994;14.660;2023-12-14T11:10:53;97292.28;;;12.10;60.84
71915;BME280;60387;49.994;14.660;2023-12-14T11:13:26;97276.63;;;12.07;60.88
71915;BME280;60387;49.994;14.660;2023-12-14T11:16:00;97285.56;;;12.07;61.08
71915;BME280;60387;49.994;14.660;2023-12-14T11:18:33;97291.34;;;12.06;61.04
71915;BME280;60387;49.994;14.660;2023-12-14T11:21:07;97295.78;;;12.02;60.80
71915;BME280;60387;49.994;14.660;2023-12-14T11:23:40;97304.06;;;11.97;61.06
71915;BME280;60387;49.994;14.660;2023-12-14T11:26:20;97296.25;;;11.87;61.10
71915;BME280;60387;49.994;14.660;2023-12-14T11:28:54;97313.97;;;11.84;61.01
71915;BME280;60387;49.994;14.660;2023-12-14T11:31:27;97305.38;;;11.82;61.02
71915;BME280;60387;49.994;14.660;2023-12-14T11:34:00;97320.88;;;11.82;60.93
71915;BME280;60387;49.994;14.660;2023-12-14T11:36:34;97314.16;;;11.79;61.09
71915;BME280;60387;49.994;14.660;2023-12-14T11:39:07;97319.09;;;11.77;61.36
71915;BME280;60387;49.994;14.660;2023-12-14T11:41:42;97308.41;;;11.72;60.94
71915;BME280;60387;49.994;14.660;2023-12-14T11:44:25;97316.06;;;11.79;61.08
71915;BME280;60387;49.994;14.660;2023-12-14T11:46:58;97320.69;;;11.78;61.44
71915;BME280;60387;49.994;14.660;2023-12-14T11:49:31;97316.22;;;11.82;61.31
71915;BME280;60387;49.994;14.660;2023-12-14T11:52:05;97314.78;;;11.85;61.12
71915;BME280;60387;49.994;14.660;2023-12-14T11:54:38;97316.06;;;11.87;60.90
71915;BME280;60387;49.994;14.660;2023-12-14T11:57:11;97328.53;;;11.88;61.45
71915;BME280;60387;49.994;14.660;2023-12-14T11:59:45;97328.69;;;11.92;61.05
71915;BME280;60387;49.994;14.660;2023-12-14T12:02:23;97317.19;;;11.95;61.29
71915;BME280;60387;49.994;14.660;2023-12-14T12:04:56;97323.59;;;11.99;61.08
71915;BME280;60387;49.994;14.660;2023-12-14T12:07:30;97328.38;;;12.02;60.96
71915;BME280;60387;49.994;14.660;2023-12-14T12:10:05;97332.97;;;12.01;61.26
71915;BME280;60387;49.994;14.660;2023-12-14T12:12:38;97330.94;;;12.07;61.14
71915;BME280;60387;49.994;14.660;2023-12-14T12:15:11;97330.94;;;12.07;60.80
71915;BME280;60387;49.994;14.660;2023-12-14T12:17:45;97336.34;;;12.07;60.97
71915;BME280;60387;49.994;14.660;2023-12-14T12:20:18;97334.25;;;12.04;60.78
71915;BME280;60387;49.994;14.660;2023-12-14T12:22:51;97335.38;;;12.03;60.98
71915;BME280;60387;49.994;14.660;2023-12-14T12:25:24;97338.28;;;11.98;60.82
71915;BME280;60387;49.994;14.660;2023-12-14T12:27:59;97346.88;;;12.00;60.73
71915;BME280;60387;49.994;14.660;2023-12-14T12:30:32;97349.13;;;11.98;60.81
71915;BME280;60387;49.994;14.660;2023-12-14T12:33:06;97345.75;;;11.92;60.80
71915;BME280;60387;49.994;14.660;2023-12-14T12:35:39;97350.72;;;11.90;60.58
71915;BME280;60387;49.994;14.660;2023-12-14T12:38:12;97349.13;;;11.89;60.61
71915;BME280;60387;49.994;14.660;2023-12-14T12:40:46;97348.47;;;11.84;60.64
71915;BME280;60387;49.994;14.660;2023-12-14T12:43:19;97364.75;;;11.84;60.89
71915;BME280;60387;49.994;14.660;2023-12-14T12:45:52;97365.41;;;11.81;60.59
71915;BME280;60387;49.994;14.660;2023-12-14T12:48:25;97366.81;;;11.78;60.45
71915;BME280;60387;49.994;14.660;2023-12-14T12:50:59;97368.25;;;11.76;60.32
71915;BME280;60387;49.994;14.660;2023-12-14T12:53:32;97372.72;;;11.72;60.42
71915;BME280;60387;49.994;14.660;2023-12-14T12:56:05;97376.06;;;11.69;60.48
71915;BME280;60387;49.994;14.660;2023-12-14T12:58:39;97374.47;;;11.68;60.49
71915;BME280;60387;49.994;14.660;2023-12-14T13:01:12;97375.59;;;11.67;60.42
71915;BME280;60387;49.994;14.660;2023-12-14T13:03:45;97381.00;;;11.67;60.67
71915;BME280;60387;49.994;14.660;2023-12-14T13:06:18;97385.31;;;11.68;60.79
71915;BME280;60387;49.994;14.660;2023-12-14T13:08:52;97389.16;;;11.67;60.61
71915;BME280;60387;49.994;14.660;2023-12-14T13:11:26;97397.28;;;11.67;60.68
71915;BME280;60387;49.994;14.660;2023-12-14T13:13:59;97387.22;;;11.59;60.80
71915;BME280;60387;49.994;14.660;2023-12-14T13:16:32;97396.31;;;11.63;60.82
71915;BME280;60387;49.994;14.660;2023-12-14T13:19:06;97401.72;;;11.63;60.92
71915;BME280;60387;49.994;14.660;2023-12-14T13:21:39;97410.97;;;11.62;60.81
71915;BME280;60387;49.994;14.660;2023-12-14T13:24:12;97410.38;;;11.65;60.91
71915;BME280;60387;49.994;14.660;2023-12-14T13:26:45;97411.50;;;11.64;60.81